createdAt,value
2023-11-16T00:01:52.124Z,100260.06
2023-11-16T00:04:54.709Z,100270.25
2023-11-16T00:07:58.724Z,100269.47
2023-11-16T00:11:01.554Z,100277.66
2023-11-16T00:14:04.889Z,100279.25
2023-11-16T00:17:10.212Z,100274.25
2023-11-16T00:20:12.817Z,100271.84
2023-11-16T00:23:15.420Z,100275.56
2023-11-16T00:26:20.443Z,100278.25
2023-11-16T00:29:28.429Z,100293.03
2023-11-16T00:32:30.913Z,100289.06
2023-11-16T00:35:33.344Z,100298.44
2023-11-16T00:38:36.583Z,100299.31
2023-11-16T00:41:39.081Z,100303.22
2023-11-16T00:44:41.942Z,100299.28
2023-11-16T00:47:44.830Z,100304.88
2023-11-16T00:50:47.270Z,100305.69
2023-11-16T00:53:49.896Z,100310.69
2023-11-16T00:56:52.480Z,100311.47
2023-11-16T00:59:54.879Z,100313.59
2023-11-16T01:02:59.999Z,100308.66
2023-11-16T01:06:03.996Z,100317.38
2023-11-16T01:09:09.843Z,100322.09
2023-11-16T01:12:16.901Z,100323.66
2023-11-16T01:15:22.112Z,100314.19
2023-11-16T01:18:28.333Z,100309.69
2023-11-16T01:21:31.175Z,100299.94
2023-11-16T01:24:36.733Z,100309.41
2023-11-16T01:27:40.306Z,100311.78
2023-11-16T01:30:42.857Z,100312.63
2023-11-16T01:33:47.328Z,100308.13
2023-11-16T01:36:51.451Z,100307.88
2023-11-16T01:39:54.338Z,100319.25
2023-11-16T01:42:58.412Z,100321.34
2023-11-16T01:46:07.007Z,100320.03
2023-11-16T01:49:10.421Z,100319.22
2023-11-16T01:52:16.214Z,100324.75
2023-11-16T01:55:18.741Z,100321.59
2023-11-16T01:58:21.847Z,100323.97
2023-11-16T02:01:25.583Z,100325.50
2023-11-16T02:04:28.834Z,100328.69
2023-11-16T02:07:31.893Z,100333.16
2023-11-16T02:10:34.318Z,100336.63
2023-11-16T02:13:37.085Z,100347.94
2023-11-16T02:16:40.317Z,100347.94
2023-11-16T02:19:43.469Z,100341.91
2023-11-16T02:22:47.010Z,100335.03
2023-11-16T02:25:54.322Z,100337.94
2023-11-16T02:28:57.252Z,100338.47
2023-11-16T02:31:59.830Z,100340.03
2023-11-16T02:35:03.446Z,100347.13
2023-11-16T02:38:07.295Z,100346.88
2023-11-16T02:41:10.340Z,100349.50
2023-11-16T02:44:20.042Z,100356.56
2023-11-16T02:47:22.920Z,100347.34
2023-11-16T02:50:27.274Z,100353.41
2023-11-16T02:53:29.730Z,100346.31
2023-11-16T02:56:32.231Z,100352.16
2023-11-16T02:59:35.296Z,100356.34
2023-11-16T03:02:37.731Z,100356.31
2023-11-16T03:05:42.277Z,100356.56
2023-11-16T03:08:45.038Z,100369.75
2023-11-16T03:11:47.501Z,100381.84
2023-11-16T03:14:51.263Z,100384.66
2023-11-16T03:17:53.792Z,100386.25
2023-11-16T03:20:56.191Z,100386.22
2023-11-16T03:23:58.660Z,100399.34
2023-11-16T03:27:01.431Z,100414.13
2023-11-16T03:30:06.273Z,100406.88
2023-11-16T03:33:13.668Z,100423.41
2023-11-16T03:36:17.561Z,100423.41
2023-11-16T03:39:20.084Z,100428.41
2023-11-16T03:42:22.665Z,100434.97
2023-11-16T03:45:25.262Z,100429.91
2023-11-16T03:48:27.957Z,100430.94
2023-11-16T03:51:31.604Z,100432.84
2023-11-16T03:54:34.375Z,100431.50
2023-11-16T03:57:36.802Z,100423.84
2023-11-16T04:00:39.314Z,100438.91
2023-11-16T04:03:43.452Z,100434.16
2023-11-16T04:06:47.755Z,100436.72
2023-11-16T04:09:53.198Z,100450.25
2023-11-16T04:12:56.860Z,100453.44
2023-11-16T04:16:00.985Z,100462.56
2023-11-16T04:19:05.579Z,100467.38
2023-11-16T04:22:08.165Z,100475.03
2023-11-16T04:25:26.575Z,100473.38
2023-11-16T04:28:31.131Z,100482.28
2023-11-16T04:31:35.014Z,100472.19
2023-11-16T04:34:37.516Z,100478.06
2023-11-16T04:37:39.875Z,100479.41
2023-11-16T04:40:42.319Z,100477.06
2023-11-16T04:43:46.521Z,100477.00
2023-11-16T04:46:50.414Z,100480.34
2023-11-16T04:49:53.843Z,100482.53
2023-11-16T04:52:56.229Z,100481.41
2023-11-16T04:55:58.721Z,100486.94
2023-11-16T04:59:01.463Z,100491.34
2023-11-16T05:02:04.021Z,100495.13
2023-11-16T05:05:06.772Z,100498.19
2023-11-16T05:08:09.832Z,100503.31
2023-11-16T05:11:21.299Z,100512.44
2023-11-16T05:14:23.688Z,100515.47
2023-11-16T05:17:26.187Z,100526.53
2023-11-16T05:20:28.659Z,100539.06
2023-11-16T05:23:31.106Z,100541.25
2023-11-16T05:26:33.567Z,100538.47
2023-11-16T05:29:36.038Z,100542.50
2023-11-16T05:32:38.565Z,100537.38
2023-11-16T05:35:41.066Z,100532.69
2023-11-16T05:38:45.234Z,100548.03
2023-11-16T05:41:47.743Z,100542.50
2023-11-16T05:44:50.199Z,100549.19
2023-11-16T05:47:52.674Z,100547.03
2023-11-16T05:50:55.221Z,100539.25
2023-11-16T05:53:57.741Z,100543.06
2023-11-16T05:57:00.368Z,100543.81
2023-11-16T06:00:08.376Z,100544.09
2023-11-16T06:03:14.405Z,100547.00
2023-11-16T06:06:16.857Z,100546.81
2023-11-16T06:09:20.453Z,100553.72
2023-11-16T06:12:24.277Z,100553.97
2023-11-16T06:15:29.950Z,100569.72
2023-11-16T06:18:32.845Z,100580.28
2023-11-16T06:21:35.270Z,100573.22
2023-11-16T06:24:38.158Z,100581.88
2023-11-16T06:27:40.789Z,100584.34
2023-11-16T06:30:43.513Z,100588.69
2023-11-16T06:33:46.038Z,100585.06
2023-11-16T06:36:49.577Z,100596.09
2023-11-16T06:39:52.136Z,100596.78
2023-11-16T06:42:54.738Z,100602.91
2023-11-16T06:46:01.045Z,100609.53
2023-11-16T06:49:04.083Z,100604.78
2023-11-16T06:52:07.189Z,100603.06
2023-11-16T06:55:11.904Z,100608.63
2023-11-16T06:58:14.469Z,100616.59
2023-11-16T07:01:16.878Z,100612.84
2023-11-16T07:04:20.218Z,100605.97
2023-11-16T07:07:22.705Z,100615.25
2023-11-16T07:10:25.392Z,100623.69
2023-11-16T07:13:27.823Z,100628.25
2023-11-16T07:16:30.910Z,100620.34
2023-11-16T07:19:33.497Z,100619.56
2023-11-16T07:22:37.295Z,100618.78
2023-11-16T07:25:39.739Z,100616.34
2023-11-16T07:28:43.872Z,100634.28
2023-11-16T07:31:47.217Z,100630.59
2023-11-16T07:34:49.724Z,100630.81
2023-11-16T07:37:53.039Z,100636.41
2023-11-16T07:40:58.410Z,100635.00
2023-11-16T07:44:01.375Z,100639.41
2023-11-16T07:47:04.663Z,100636.66
2023-11-16T07:50:08.865Z,100628.19
2023-11-16T07:53:12.023Z,100633.88
2023-11-16T07:56:18.813Z,100636.00
2023-11-16T07:59:26.490Z,100628.84
2023-11-16T08:02:48.964Z,100631.56
2023-11-16T08:05:51.886Z,100631.09
2023-11-16T08:08:54.424Z,100645.13
2023-11-16T08:11:57.513Z,100637.09
2023-11-16T08:15:00.048Z,100636.88
2023-11-16T08:18:02.689Z,100650.66
2023-11-16T08:21:09.279Z,100654.19
2023-11-16T08:24:15.342Z,100652.56
2023-11-16T08:27:19.272Z,100657.97
2023-11-16T08:30:25.389Z,100663.13
2023-11-16T08:33:27.944Z,100656.47
2023-11-16T08:36:30.410Z,100649.28
2023-11-16T08:39:32.889Z,100646.69
2023-11-16T08:42:42.726Z,100643.53
2023-11-16T08:45:46.900Z,100646.44
2023-11-16T08:48:49.584Z,100645.78
2023-11-16T08:52:00.652Z,100644.34
2023-11-16T08:55:04.139Z,100658.16
2023-11-16T08:58:07.848Z,100668.91
2023-11-16T09:01:11.890Z,100679.56
2023-11-16T09:04:15.011Z,100669.44
2023-11-16T09:07:17.920Z,100669.81
2023-11-16T09:10:22.364Z,100663.97
2023-11-16T09:13:24.879Z,100656.91
2023-11-16T09:16:27.335Z,100651.75
2023-11-16T09:19:32.056Z,100650.13
2023-11-16T09:22:34.866Z,100645.72
2023-11-16T09:25:37.511Z,100647.34
2023-11-16T09:28:40.192Z,100637.69
2023-11-16T09:31:45.022Z,100639.91
2023-11-16T09:34:51.158Z,100644.22
2023-11-16T09:37:56.864Z,100628.47
2023-11-16T09:41:12.671Z,100618.03
2023-11-16T09:44:18.175Z,100627.56
2023-11-16T09:47:27.957Z,100627.09
2023-11-16T09:50:31.022Z,100617.06
2023-11-16T09:53:35.750Z,100618.31
2023-11-16T09:56:43.100Z,100615.63
2023-11-16T09:59:52.043Z,100601.34
2023-11-16T10:02:57.259Z,100605.69
2023-11-16T10:06:00.665Z,100600.28
2023-11-16T10:09:15.758Z,100589.38
2023-11-16T10:12:18.414Z,100587.31
2023-11-16T10:15:22.099Z,100579.41
2023-11-16T10:18:25.656Z,100582.91
2023-11-16T10:21:29.685Z,100584.78
2023-11-16T10:24:35.293Z,100583.69
2023-11-16T10:27:38.701Z,100586.50
2023-11-16T10:30:42.399Z,100592.06
2023-11-16T10:33:46.373Z,100591.94
2023-11-16T10:36:50.103Z,100577.63
2023-11-16T10:39:53.044Z,100591.22
2023-11-16T10:42:57.818Z,100582.59
2023-11-16T10:46:01.966Z,100576.00
2023-11-16T10:49:05.328Z,100576.75
2023-11-16T10:52:09.009Z,100573.44
2023-11-16T10:55:17.667Z,100568.19
2023-11-16T10:58:22.321Z,100574.53
2023-11-16T11:01:25.852Z,100579.47
2023-11-16T11:04:29.780Z,100567.41
2023-11-16T11:07:34.405Z,100565.63
2023-11-16T11:10:42.806Z,100564.09
2023-11-16T11:13:46.553Z,100561.56
2023-11-16T11:16:51.927Z,100554.09
2023-11-16T11:20:01.704Z,100559.72
2023-11-16T11:23:09.901Z,100543.44
2023-11-16T11:26:14.933Z,100549.91
2023-11-16T11:29:21.799Z,100543.00
2023-11-16T11:32:34.815Z,100538.50
2023-11-16T11:35:38.543Z,100538.50
2023-11-16T11:38:43.896Z,100532.88
2023-11-16T11:42:01.077Z,100515.34
2023-11-16T11:45:05.864Z,100508.97
2023-11-16T11:48:08.931Z,100510.41
2023-11-16T11:51:15.696Z,100507.72
2023-11-16T11:54:18.127Z,100508.47
2023-11-16T11:57:27.784Z,100503.31
2023-11-16T12:00:52.693Z,100509.09
2023-11-16T12:04:06.084Z,100499.38
2023-11-16T12:07:13.655Z,100514.41
2023-11-16T12:10:16.937Z,100509.16
2023-11-16T12:13:19.524Z,100499.97
2023-11-16T12:16:26.629Z,100506.28
2023-11-16T12:19:29.123Z,100505.00
2023-11-16T12:22:32.354Z,100509.75
2023-11-16T12:25:37.314Z,100500.22
2023-11-16T12:28:40.202Z,100497.84
2023-11-16T12:31:42.708Z,100491.44
2023-11-16T12:34:45.326Z,100491.03
2023-11-16T12:37:47.794Z,100488.66
2023-11-16T12:40:50.206Z,100485.88
2023-11-16T12:43:52.818Z,100476.03
2023-11-16T12:46:55.777Z,100475.03
2023-11-16T12:49:59.933Z,100478.94
2023-11-16T12:53:02.498Z,100478.72
2023-11-16T12:56:07.311Z,100478.13
2023-11-16T12:59:14.041Z,100466.94
2023-11-16T13:02:16.650Z,100465.72
2023-11-16T13:05:20.163Z,100456.22
2023-11-16T13:08:23.564Z,100456.91
2023-11-16T13:11:26.217Z,100459.56
2023-11-16T13:14:28.642Z,100465.19
2023-11-16T13:17:31.332Z,100465.69
2023-11-16T13:20:33.889Z,100466.28
2023-11-16T13:23:37.524Z,100461.75
2023-11-16T13:26:41.736Z,100454.84
2023-11-16T13:29:45.812Z,100447.53
2023-11-16T13:32:48.327Z,100454.97
2023-11-16T13:35:50.760Z,100450.97
2023-11-16T13:38:55.120Z,100449.16
2023-11-16T13:41:57.620Z,100455.63
2023-11-16T13:45:00.058Z,100447.06
2023-11-16T13:48:02.628Z,100458.34
2023-11-16T13:51:05.303Z,100447.53
2023-11-16T13:54:07.746Z,100446.34
2023-11-16T13:57:10.511Z,100439.09
2023-11-16T14:00:13.541Z,100428.22
2023-11-16T14:03:17.458Z,100427.78
2023-11-16T14:06:25.015Z,100413.31
2023-11-16T14:09:27.512Z,100422.41
2023-11-16T14:12:30.067Z,100411.94
2023-11-16T14:15:33.591Z,100413.84
2023-11-16T14:18:36.694Z,100415.75
2023-11-16T14:21:40.575Z,100418.22
2023-11-16T14:24:47.423Z,100408.81
2023-11-16T14:27:50.046Z,100408.13
2023-11-16T14:30:53.157Z,100413.16
2023-11-16T14:33:56.556Z,100416.22
2023-11-16T14:36:59.301Z,100419.34
2023-11-16T14:40:02.784Z,100419.66
2023-11-16T14:43:06.196Z,100421.59
2023-11-16T14:46:10.064Z,100419.78
2023-11-16T14:49:15.815Z,100419.16
2023-11-16T14:52:18.427Z,100411.25
2023-11-16T14:55:20.911Z,100409.47
2023-11-16T14:58:23.632Z,100401.88
2023-11-16T15:01:30.528Z,100403.53
2023-11-16T15:04:33.058Z,100398.31
2023-11-16T15:07:36.554Z,100398.41
2023-11-16T15:10:38.952Z,100409.09
2023-11-16T15:13:50.897Z,100406.25
2023-11-16T15:17:01.634Z,100407.19
2023-11-16T15:20:15.940Z,100399.28
2023-11-16T15:23:26.502Z,100399.31
2023-11-16T15:26:37.716Z,100398.50
2023-11-16T15:29:47.601Z,100388.75
2023-11-16T15:32:51.686Z,100387.47
2023-11-16T15:35:54.273Z,100389.28
2023-11-16T15:39:04.293Z,100386.72
2023-11-16T15:42:08.054Z,100374.72
2023-11-16T15:45:13.780Z,100375.97
2023-11-16T15:48:16.350Z,100368.41
2023-11-16T15:51:23.758Z,100374.56
2023-11-16T15:54:26.503Z,100371.41
2023-11-16T15:57:30.381Z,100365.34
2023-11-16T16:00:34.777Z,100368.50
2023-11-16T16:03:37.537Z,100362.31
2023-11-16T16:06:40.514Z,100357.47
2023-11-16T16:09:45.098Z,100355.16
2023-11-16T16:12:47.674Z,100361.00
2023-11-16T16:15:50.786Z,100368.84
2023-11-16T16:18:53.356Z,100360.69
2023-11-16T16:21:55.790Z,100353.28
2023-11-16T16:24:58.495Z,100364.69
2023-11-16T16:28:01.219Z,100368.41
2023-11-16T16:31:04.292Z,100363.19
2023-11-16T16:34:11.037Z,100369.44
2023-11-16T16:37:13.623Z,100373.81
2023-11-16T16:40:17.651Z,100375.81
2023-11-16T16:43:20.171Z,100366.97
2023-11-16T16:46:26.259Z,100371.66
2023-11-16T16:49:31.589Z,100363.00
2023-11-16T16:52:34.130Z,100362.91
2023-11-16T16:55:38.949Z,100364.00
2023-11-16T16:58:41.530Z,100355.16
2023-11-16T17:01:44.056Z,100357.69
2023-11-16T17:04:47.407Z,100355.81
2023-11-16T17:07:49.884Z,100361.81
2023-11-16T17:10:52.273Z,100363.13
2023-11-16T17:13:55.789Z,100369.00
2023-11-16T17:16:58.361Z,100362.28
2023-11-16T17:20:01.655Z,100359.69
2023-11-16T17:23:04.191Z,100361.84
2023-11-16T17:26:07.892Z,100354.13
2023-11-16T17:29:10.379Z,100350.69
2023-11-16T17:32:13.606Z,100341.44
2023-11-16T17:35:17.428Z,100340.19
2023-11-16T17:38:20.528Z,100326.84
2023-11-16T17:41:24.656Z,100331.84
2023-11-16T17:44:28.863Z,100323.19
2023-11-16T17:47:31.326Z,100318.38
2023-11-16T17:50:33.700Z,100318.38
2023-11-16T17:53:36.628Z,100319.03
2023-11-16T17:56:39.864Z,100314.00
2023-11-16T17:59:43.012Z,100323.03
2023-11-16T18:02:46.436Z,100316.28
2023-11-16T18:05:49.174Z,100311.09
2023-11-16T18:08:52.162Z,100312.16
2023-11-16T18:11:54.540Z,100321.97
2023-11-16T18:14:58.825Z,100319.63
2023-11-16T18:18:04.200Z,100312.78
2023-11-16T18:21:06.844Z,100319.59
2023-11-16T18:24:09.364Z,100311.97
2023-11-16T18:27:15.144Z,100308.38
2023-11-16T18:30:20.521Z,100317.25
2023-11-16T18:33:23.025Z,100325.63
2023-11-16T18:36:25.741Z,100327.28
2023-11-16T18:39:31.900Z,100323.25
2023-11-16T18:42:36.147Z,100324.25
2023-11-16T18:45:40.091Z,100318.47
2023-11-16T18:48:42.699Z,100324.81
2023-11-16T18:51:49.200Z,100310.44
2023-11-16T18:54:51.797Z,100308.50
2023-11-16T18:57:54.427Z,100320.25
2023-11-16T19:00:56.922Z,100315.97
2023-11-16T19:04:00.011Z,100314.56
2023-11-16T19:07:03.064Z,100303.47
2023-11-16T19:10:06.488Z,100301.13
2023-11-16T19:13:13.105Z,100308.66
2023-11-16T19:16:16.509Z,100308.28
2023-11-16T19:19:19.509Z,100295.41
2023-11-16T19:22:23.366Z,100295.75
2023-11-16T19:25:26.692Z,100290.41
2023-11-16T19:28:30.070Z,100286.47
2023-11-16T19:31:33.512Z,100283.03
2023-11-16T19:34:36.793Z,100285.53
2023-11-16T19:37:39.250Z,100284.81
2023-11-16T19:40:42.259Z,100276.22
2023-11-16T19:43:44.926Z,100273.94
2023-11-16T19:46:50.500Z,100271.09
2023-11-16T19:49:53.207Z,100262.13
2023-11-16T19:52:56.350Z,100259.25
2023-11-16T19:55:58.804Z,100251.53
2023-11-16T19:59:01.519Z,100255.53
2023-11-16T20:02:06.590Z,100250.81
2023-11-16T20:05:09.992Z,100251.81
2023-11-16T20:08:12.849Z,100237.72
2023-11-16T20:11:15.503Z,100232.16
2023-11-16T20:14:18.101Z,100234.28
2023-11-16T20:17:20.667Z,100232.88
2023-11-16T20:20:27.192Z,100236.38
2023-11-16T20:23:29.630Z,100219.91
2023-11-16T20:26:32.256Z,100218.34
2023-11-16T20:29:38.004Z,100223.53
2023-11-16T20:32:41.049Z,100213.06
2023-11-16T20:35:43.656Z,100206.97
2023-11-16T20:38:46.056Z,100208.16
2023-11-16T20:41:49.971Z,100216.75
2023-11-16T20:44:52.391Z,100207.75
2023-11-16T20:47:55.081Z,100210.47
2023-11-16T20:50:57.681Z,100219.25
2023-11-16T20:54:00.177Z,100208.31
2023-11-16T20:57:02.772Z,100208.81
2023-11-16T21:00:09.858Z,100191.34
2023-11-16T21:03:14.651Z,100188.22
2023-11-16T21:06:17.376Z,100198.09
2023-11-16T21:09:19.793Z,100208.38
2023-11-16T21:12:22.388Z,100202.06
2023-11-16T21:15:24.845Z,100205.91
2023-11-16T21:18:29.072Z,100202.97
2023-11-16T21:21:32.976Z,100193.44
2023-11-16T21:24:35.510Z,100184.06
2023-11-16T21:27:38.431Z,100190.78
2023-11-16T21:30:41.046Z,100182.63
2023-11-16T21:33:43.481Z,100169.09
2023-11-16T21:36:45.977Z,100164.28
2023-11-16T21:39:48.730Z,100157.41
2023-11-16T21:42:51.281Z,100141.88
2023-11-16T21:45:53.859Z,100138.72
2023-11-16T21:48:56.399Z,100128.59
2023-11-16T21:51:59.654Z,100131.09
2023-11-16T21:55:02.510Z,100122.91
2023-11-16T21:58:05.021Z,100116.59
2023-11-16T22:01:09.209Z,100115.63
2023-11-16T22:04:13.821Z,100110.44
2023-11-16T22:07:16.345Z,100104.09
2023-11-16T22:10:19.789Z,100100.44
2023-11-16T22:13:22.422Z,100085.84
2023-11-16T22:16:24.859Z,100094.34
2023-11-16T22:19:33.046Z,100076.31
2023-11-16T22:22:35.794Z,100082.91
2023-11-16T22:25:38.181Z,100075.25
2023-11-16T22:28:40.681Z,100074.31
2023-11-16T22:31:43.489Z,100063.66
2023-11-16T22:34:46.019Z,100069.09
2023-11-16T22:37:49.406Z,100061.31
2023-11-16T22:40:51.967Z,100050.56
2023-11-16T22:43:54.856Z,100038.88
2023-11-16T22:46:58.368Z,100038.28
2023-11-16T22:50:00.934Z,100040.75
2023-11-16T22:53:04.631Z,100041.63
2023-11-16T22:56:07.716Z,100036.56
2023-11-16T22:59:13.276Z,100044.31
2023-11-16T23:02:15.707Z,100031.78
2023-11-16T23:05:19.610Z,100014.09
2023-11-16T23:08:22.271Z,100003.03
2023-11-16T23:11:24.792Z,100006.38
2023-11-16T23:14:27.687Z,99995.28
2023-11-16T23:17:30.316Z,99988.41
2023-11-16T23:20:34.821Z,99986.47
2023-11-16T23:23:37.231Z,99975.69
2023-11-16T23:26:39.669Z,99953.91
2023-11-16T23:29:45.156Z,99954.78
2023-11-16T23:32:47.684Z,99962.84
2023-11-16T23:35:50.083Z,99954.22
2023-11-16T23:38:52.521Z,99955.28
2023-11-16T23:41:54.967Z,99963.34
2023-11-16T23:44:57.380Z,99972.25
2023-11-16T23:48:01.810Z,99964.22
2023-11-16T23:51:15.531Z,99963.63
2023-11-16T23:54:21.792Z,99964.78
2023-11-16T23:57:24.291Z,99959.41
